sensor_id;sensor_type;location;lat;lon;timestamp;P1;durP1;ratioP1;P2;durP2;ratioP2
34489;SDS011;20730;49.372;7.324;2023-08-30T00:01:04;16.40;;;13.32;;
34489;SDS011;20730;49.372;7.324;2023-08-30T00:03:31;17.00;;;14.43;;
34489;SDS011;20730;49.372;7.324;2023-08-30T00:06:02;17.83;;;13.57;;
34489;SDS011;20730;49.372;7.324;2023-08-30T00:08:30;14.80;;;12.88;;
34489;SDS011;20730;49.372;7.324;2023-08-30T00:10:58;15.18;;;13.13;;
34489;SDS011;20730;49.372;7.324;2023-08-30T00:13:25;19.10;;;12.77;;
34489;SDS011;20730;49.372;7.324;2023-08-30T00:15:53;15.95;;;12.13;;
34489;SDS011;20730;49.372;7.324;2023-08-30T00:18:20;14.88;;;12.43;;
34489;SDS011;20730;49.372;7.324;2023-08-30T00:20:47;16.25;;;13.38;;
34489;SDS011;20730;49.372;7.324;2023-08-30T00:23:14;15.15;;;13.57;;
34489;SDS011;20730;49.372;7.324;2023-08-30T00:25:41;14.35;;;12.38;;
34489;SDS011;20730;49.372;7.324;2023-08-30T00:28:07;16.00;;;14.00;;
34489;SDS011;20730;49.372;7.324;2023-08-30T00:30:34;19.60;;;14.50;;
34489;SDS011;20730;49.372;7.324;2023-08-30T00:33:03;18.27;;;14.57;;
34489;SDS011;20730;49.372;7.324;2023-08-30T00:35:30;17.45;;;14.35;;
34489;SDS011;20730;49.372;7.324;2023-08-30T00:37:57;18.52;;;15.52;;
34489;SDS011;20730;49.372;7.324;2023-08-30T00:40:24;23.02;;;18.00;;
34489;SDS011;20730;49.372;7.324;2023-08-30T00:42:52;23.75;;;18.15;;
34489;SDS011;20730;49.372;7.324;2023-08-30T00:45:19;22.08;;;17.70;;
34489;SDS011;20730;49.372;7.324;2023-08-30T00:47:45;22.00;;;16.98;;
34489;SDS011;20730;49.372;7.324;2023-08-30T00:50:13;20.02;;;17.02;;
34489;SDS011;20730;49.372;7.324;2023-08-30T00:52:39;19.95;;;16.27;;
34489;SDS011;20730;49.372;7.324;2023-08-30T00:55:06;22.42;;;17.80;;
34489;SDS011;20730;49.372;7.324;2023-08-30T00:57:34;20.75;;;17.33;;
34489;SDS011;20730;49.372;7.324;2023-08-30T01:00:00;23.05;;;17.38;;
34489;SDS011;20730;49.372;7.324;2023-08-30T01:02:29;23.65;;;17.88;;
34489;SDS011;20730;49.372;7.324;2023-08-30T01:04:56;21.33;;;17.52;;
34489;SDS011;20730;49.372;7.324;2023-08-30T01:07:23;25.73;;;18.85;;
34489;SDS011;20730;49.372;7.324;2023-08-30T01:09:50;25.73;;;19.05;;
34489;SDS011;20730;49.372;7.324;2023-08-30T01:12:17;24.27;;;18.88;;
34489;SDS011;20730;49.372;7.324;2023-08-30T01:14:58;27.40;;;21.30;;
34489;SDS011;20730;49.372;7.324;2023-08-30T01:17:27;27.50;;;22.10;;
34489;SDS011;20730;49.372;7.324;2023-08-30T01:20:00;27.83;;;22.23;;
34489;SDS011;20730;49.372;7.324;2023-08-30T01:28:09;30.02;;;23.27;;
34489;SDS011;20730;49.372;7.324;2023-08-30T01:30:37;28.67;;;22.58;;
34489;SDS011;20730;49.372;7.324;2023-08-30T01:33:06;34.83;;;24.35;;
34489;SDS011;20730;49.372;7.324;2023-08-30T01:35:34;28.95;;;23.42;;
34489;SDS011;20730;49.372;7.324;2023-08-30T01:38:03;30.00;;;23.33;;
34489;SDS011;20730;49.372;7.324;2023-08-30T01:40:36;27.83;;;22.80;;
34489;SDS011;20730;49.372;7.324;2023-08-30T01:43:04;27.30;;;22.75;;
34489;SDS011;20730;49.372;7.324;2023-08-30T01:45:35;29.67;;;24.75;;
34489;SDS011;20730;49.372;7.324;2023-08-30T01:48:03;36.17;;;27.23;;
34489;SDS011;20730;49.372;7.324;2023-08-30T01:50:32;32.17;;;26.30;;
34489;SDS011;20730;49.372;7.324;2023-08-30T01:52:59;35.13;;;26.40;;
34489;SDS011;20730;49.372;7.324;2023-08-30T01:55:26;36.95;;;27.67;;
34489;SDS011;20730;49.372;7.324;2023-08-30T01:57:57;39.28;;;27.92;;
34489;SDS011;20730;49.372;7.324;2023-08-30T02:00:25;34.33;;;26.15;;
34489;SDS011;20730;49.372;7.324;2023-08-30T02:02:52;35.28;;;27.35;;
34489;SDS011;20730;49.372;7.324;2023-08-30T02:05:19;39.25;;;28.48;;
34489;SDS011;20730;49.372;7.324;2023-08-30T02:07:51;37.85;;;28.80;;
34489;SDS011;20730;49.372;7.324;2023-08-30T02:10:23;38.95;;;28.85;;
34489;SDS011;20730;49.372;7.324;2023-08-30T02:12:52;36.80;;;27.70;;
34489;SDS011;20730;49.372;7.324;2023-08-30T02:15:20;38.78;;;28.38;;
34489;SDS011;20730;49.372;7.324;2023-08-30T02:17:48;45.15;;;33.00;;
34489;SDS011;20730;49.372;7.324;2023-08-30T02:20:15;47.08;;;33.42;;
34489;SDS011;20730;49.372;7.324;2023-08-30T02:22:42;48.38;;;32.85;;
34489;SDS011;20730;49.372;7.324;2023-08-30T02:25:09;47.95;;;32.63;;
34489;SDS011;20730;49.372;7.324;2023-08-30T02:27:36;36.63;;;28.15;;
34489;SDS011;20730;49.372;7.324;2023-08-30T02:30:03;37.58;;;26.98;;
34489;SDS011;20730;49.372;7.324;2023-08-30T02:32:31;40.42;;;28.77;;
34489;SDS011;20730;49.372;7.324;2023-08-30T02:34:58;39.53;;;27.77;;
34489;SDS011;20730;49.372;7.324;2023-08-30T02:37:24;42.42;;;29.88;;
34489;SDS011;20730;49.372;7.324;2023-08-30T02:39:51;51.08;;;33.25;;
34489;SDS011;20730;49.372;7.324;2023-08-30T02:42:18;43.70;;;30.95;;
34489;SDS011;20730;49.372;7.324;2023-08-30T02:44:45;53.40;;;34.25;;
34489;SDS011;20730;49.372;7.324;2023-08-30T02:47:12;56.70;;;36.58;;
34489;SDS011;20730;49.372;7.324;2023-08-30T02:49:39;59.60;;;37.63;;
34489;SDS011;20730;49.372;7.324;2023-08-30T02:52:06;59.80;;;36.10;;
34489;SDS011;20730;49.372;7.324;2023-08-30T02:54:32;57.70;;;35.80;;
34489;SDS011;20730;49.372;7.324;2023-08-30T02:56:59;49.75;;;33.75;;
34489;SDS011;20730;49.372;7.324;2023-08-30T02:59:26;51.88;;;33.05;;
34489;SDS011;20730;49.372;7.324;2023-08-30T03:01:53;48.70;;;32.85;;
34489;SDS011;20730;49.372;7.324;2023-08-30T03:04:20;45.50;;;32.17;;
34489;SDS011;20730;49.372;7.324;2023-08-30T03:06:47;56.13;;;34.38;;
34489;SDS011;20730;49.372;7.324;2023-08-30T03:09:14;50.88;;;33.38;;
34489;SDS011;20730;49.372;7.324;2023-08-30T03:11:43;44.55;;;31.67;;
34489;SDS011;20730;49.372;7.324;2023-08-30T03:14:10;48.88;;;30.98;;
34489;SDS011;20730;49.372;7.324;2023-08-30T03:16:37;57.60;;;34.55;;
34489;SDS011;20730;49.372;7.324;2023-08-30T03:19:04;71.15;;;38.92;;
34489;SDS011;20730;49.372;7.324;2023-08-30T03:21:31;65.15;;;37.22;;
34489;SDS011;20730;49.372;7.324;2023-08-30T03:23:58;60.00;;;34.75;;
34489;SDS011;20730;49.372;7.324;2023-08-30T03:26:25;57.00;;;34.17;;
34489;SDS011;20730;49.372;7.324;2023-08-30T03:28:53;56.78;;;32.55;;
34489;SDS011;20730;49.372;7.324;2023-08-30T03:31:21;58.65;;;32.90;;
34489;SDS011;20730;49.372;7.324;2023-08-30T03:33:49;67.63;;;34.55;;
34489;SDS011;20730;49.372;7.324;2023-08-30T03:36:17;87.40;;;35.10;;
34489;SDS011;20730;49.372;7.324;2023-08-30T03:38:44;113.65;;;38.97;;
34489;SDS011;20730;49.372;7.324;2023-08-30T03:41:11;85.18;;;40.25;;
34489;SDS011;20730;49.372;7.324;2023-08-30T03:43:39;87.05;;;41.88;;
34489;SDS011;20730;49.372;7.324;2023-08-30T03:46:07;98.60;;;42.88;;
34489;SDS011;20730;49.372;7.324;2023-08-30T03:48:36;120.35;;;43.13;;
34489;SDS011;20730;49.372;7.324;2023-08-30T03:51:03;164.43;;;44.05;;
34489;SDS011;20730;49.372;7.324;2023-08-30T03:53:32;101.72;;;44.88;;
34489;SDS011;20730;49.372;7.324;2023-08-30T03:55:58;146.75;;;46.15;;
34489;SDS011;20730;49.372;7.324;2023-08-30T03:58:25;113.80;;;43.35;;
34489;SDS011;20730;49.372;7.324;2023-08-30T04:00:52;526.70;;;49.78;;
34489;SDS011;20730;49.372;7.324;2023-08-30T04:03:19;571.47;;;49.22;;
34489;SDS011;20730;49.372;7.324;2023-08-30T04:05:46;360.55;;;45.65;;
34489;SDS011;20730;49.372;7.324;2023-08-30T04:08:13;339.17;;;42.13;;
34489;SDS011;20730;49.372;7.324;2023-08-30T04:10:40;204.52;;;39.80;;
34489;SDS011;20730;49.372;7.324;2023-08-30T04:13:08;329.77;;;42.08;;
34489;SDS011;20730;49.372;7.324;2023-08-30T04:15:36;232.05;;;39.15;;
34489;SDS011;20730;49.372;7.324;2023-08-30T04:18:04;141.48;;;37.72;;
34489;SDS011;20730;49.372;7.324;2023-08-30T04:20:33;138.38;;;37.55;;
34489;SDS011;20730;49.372;7.324;2023-08-30T04:23:00;146.25;;;37.05;;
34489;SDS011;20730;49.372;7.324;2023-08-30T04:25:29;183.25;;;36.50;;
34489;SDS011;20730;49.372;7.324;2023-08-30T04:27:57;296.60;;;37.13;;
34489;SDS011;20730;49.372;7.324;2023-08-30T04:30:25;187.85;;;32.97;;
34489;SDS011;20730;49.372;7.324;2023-08-30T04:32:52;227.20;;;34.10;;
34489;SDS011;20730;49.372;7.324;2023-08-30T04:35:19;223.20;;;33.53;;
34489;SDS011;20730;49.372;7.324;2023-08-30T04:37:47;236.38;;;33.72;;
34489;SDS011;20730;49.372;7.324;2023-08-30T04:40:14;110.93;;;31.85;;
34489;SDS011;20730;49.372;7.324;2023-08-30T04:42:42;265.38;;;34.05;;
34489;SDS011;20730;49.372;7.324;2023-08-30T04:45:10;141.23;;;30.25;;
34489;SDS011;20730;49.372;7.324;2023-08-30T04:47:37;179.93;;;28.88;;
34489;SDS011;20730;49.372;7.324;2023-08-30T04:50:04;194.80;;;29.77;;
34489;SDS011;20730;49.372;7.324;2023-08-30T04:52:32;199.60;;;30.63;;
34489;SDS011;20730;49.372;7.324;2023-08-30T04:54:59;173.93;;;28.50;;
34489;SDS011;20730;49.372;7.324;2023-08-30T04:57:29;159.88;;;29.15;;
34489;SDS011;20730;49.372;7.324;2023-08-30T04:59:57;197.80;;;28.42;;
34489;SDS011;20730;49.372;7.324;2023-08-30T05:02:23;162.90;;;28.83;;
34489;SDS011;20730;49.372;7.324;2023-08-30T05:04:57;90.70;;;27.63;;
34489;SDS011;20730;49.372;7.324;2023-08-30T05:07:25;221.52;;;28.75;;
34489;SDS011;20730;49.372;7.324;2023-08-30T05:09:51;142.50;;;27.90;;
34489;SDS011;20730;49.372;7.324;2023-08-30T05:12:18;79.90;;;27.67;;
34489;SDS011;20730;49.372;7.324;2023-08-30T05:14:45;59.47;;;27.95;;
34489;SDS011;20730;49.372;7.324;2023-08-30T05:17:12;106.47;;;30.77;;
34489;SDS011;20730;49.372;7.324;2023-08-30T05:19:39;172.68;;;29.80;;
34489;SDS011;20730;49.372;7.324;2023-08-30T05:22:06;323.00;;;34.42;;
34489;SDS011;20730;49.372;7.324;2023-08-30T05:24:34;124.03;;;30.02;;
34489;SDS011;20730;49.372;7.324;2023-08-30T05:27:01;125.38;;;30.35;;
34489;SDS011;20730;49.372;7.324;2023-08-30T05:29:36;161.52;;;30.58;;
34489;SDS011;20730;49.372;7.324;2023-08-30T05:32:03;158.60;;;28.85;;
34489;SDS011;20730;49.372;7.324;2023-08-30T05:34:45;118.25;;;28.60;;
34489;SDS011;20730;49.372;7.324;2023-08-30T05:37:24;119.25;;;29.42;;
34489;SDS011;20730;49.372;7.324;2023-08-30T05:40:03;95.25;;;28.27;;
34489;SDS011;20730;49.372;7.324;2023-08-30T05:42:30;126.78;;;29.95;;
34489;SDS011;20730;49.372;7.324;2023-08-30T05:44:57;225.95;;;30.65;;
34489;SDS011;20730;49.372;7.324;2023-08-30T05:47:23;59.97;;;26.55;;
34489;SDS011;20730;49.372;7.324;2023-08-30T05:49:50;135.70;;;30.05;;
34489;SDS011;20730;49.372;7.324;2023-08-30T05:52:17;71.30;;;27.25;;
34489;SDS011;20730;49.372;7.324;2023-08-30T05:54:44;119.95;;;28.55;;
34489;SDS011;20730;49.372;7.324;2023-08-30T05:57:12;401.95;;;29.50;;
34489;SDS011;20730;49.372;7.324;2023-08-30T05:59:39;223.43;;;28.48;;
34489;SDS011;20730;49.372;7.324;2023-08-30T06:02:05;88.28;;;28.13;;
34489;SDS011;20730;49.372;7.324;2023-08-30T06:04:32;98.20;;;28.48;;
34489;SDS011;20730;49.372;7.324;2023-08-30T06:06:59;211.00;;;29.70;;
34489;SDS011;20730;49.372;7.324;2023-08-30T06:09:26;267.88;;;31.42;;
34489;SDS011;20730;49.372;7.324;2023-08-30T06:11:52;94.10;;;27.92;;
34489;SDS011;20730;49.372;7.324;2023-08-30T06:14:19;171.13;;;29.67;;
34489;SDS011;20730;49.372;7.324;2023-08-30T06:16:46;100.00;;;28.30;;
34489;SDS011;20730;49.372;7.324;2023-08-30T06:19:12;101.40;;;28.15;;
34489;SDS011;20730;49.372;7.324;2023-08-30T06:21:39;84.55;;;27.70;;
34489;SDS011;20730;49.372;7.324;2023-08-30T06:24:06;57.72;;;26.88;;
34489;SDS011;20730;49.372;7.324;2023-08-30T06:26:33;65.95;;;25.42;;
34489;SDS011;20730;49.372;7.324;2023-08-30T06:28:59;67.00;;;25.70;;
34489;SDS011;20730;49.372;7.324;2023-08-30T06:31:31;60.75;;;26.83;;
34489;SDS011;20730;49.372;7.324;2023-08-30T06:33:59;57.03;;;26.90;;
34489;SDS011;20730;49.372;7.324;2023-08-30T06:36:26;47.53;;;26.27;;
34489;SDS011;20730;49.372;7.324;2023-08-30T06:38:53;48.67;;;26.75;;
34489;SDS011;20730;49.372;7.324;2023-08-30T06:41:19;50.60;;;28.08;;
34489;SDS011;20730;49.372;7.324;2023-08-30T06:43:46;45.40;;;27.95;;
34489;SDS011;20730;49.372;7.324;2023-08-30T06:46:13;46.75;;;28.58;;
34489;SDS011;20730;49.372;7.324;2023-08-30T06:48:40;45.70;;;27.60;;
34489;SDS011;20730;49.372;7.324;2023-08-30T06:51:06;41.20;;;26.27;;
34489;SDS011;20730;49.372;7.324;2023-08-30T06:53:33;42.95;;;26.77;;
34489;SDS011;20730;49.372;7.324;2023-08-30T06:56:00;40.08;;;26.17;;
34489;SDS011;20730;49.372;7.324;2023-08-30T06:58:27;42.72;;;26.58;;
34489;SDS011;20730;49.372;7.324;2023-08-30T07:00:56;47.60;;;26.65;;
34489;SDS011;20730;49.372;7.324;2023-08-30T07:03:23;42.08;;;26.02;;
34489;SDS011;20730;49.372;7.324;2023-08-30T07:05:50;40.88;;;25.88;;
34489;SDS011;20730;49.372;7.324;2023-08-30T07:08:18;44.08;;;26.63;;
34489;SDS011;20730;49.372;7.324;2023-08-30T07:10:44;41.17;;;24.95;;
34489;SDS011;20730;49.372;7.324;2023-08-30T07:13:11;37.50;;;23.48;;
34489;SDS011;20730;49.372;7.324;2023-08-30T07:15:39;36.03;;;24.73;;
34489;SDS011;20730;49.372;7.324;2023-08-30T07:18:07;35.08;;;24.25;;
34489;SDS011;20730;49.372;7.324;2023-08-30T07:20:34;34.47;;;24.40;;
34489;SDS011;20730;49.372;7.324;2023-08-30T07:23:03;35.28;;;24.58;;
34489;SDS011;20730;49.372;7.324;2023-08-30T07:25:30;34.13;;;23.30;;
34489;SDS011;20730;49.372;7.324;2023-08-30T07:28:00;31.90;;;23.15;;
34489;SDS011;20730;49.372;7.324;2023-08-30T07:30:27;36.00;;;25.35;;
34489;SDS011;20730;49.372;7.324;2023-08-30T07:32:54;33.05;;;22.63;;
34489;SDS011;20730;49.372;7.324;2023-08-30T07:35:21;35.15;;;24.80;;
34489;SDS011;20730;49.372;7.324;2023-08-30T07:37:47;33.40;;;24.08;;
34489;SDS011;20730;49.372;7.324;2023-08-30T07:40:15;35.95;;;24.77;;
34489;SDS011;20730;49.372;7.324;2023-08-30T07:42:41;35.08;;;24.80;;
34489;SDS011;20730;49.372;7.324;2023-08-30T07:45:08;36.63;;;25.27;;
34489;SDS011;20730;49.372;7.324;2023-08-30T07:47:36;39.08;;;25.13;;
34489;SDS011;20730;49.372;7.324;2023-08-30T07:50:04;46.88;;;29.73;;
34489;SDS011;20730;49.372;7.324;2023-08-30T07:52:31;41.65;;;27.90;;
34489;SDS011;20730;49.372;7.324;2023-08-30T07:55:11;41.20;;;25.57;;
34489;SDS011;20730;49.372;7.324;2023-08-30T07:57:38;47.45;;;30.52;;
34489;SDS011;20730;49.372;7.324;2023-08-30T08:00:05;42.00;;;29.75;;
34489;SDS011;20730;49.372;7.324;2023-08-30T08:02:37;46.75;;;32.00;;
34489;SDS011;20730;49.372;7.324;2023-08-30T08:05:04;40.72;;;27.42;;
34489;SDS011;20730;49.372;7.324;2023-08-30T08:07:30;39.33;;;27.20;;
34489;SDS011;20730;49.372;7.324;2023-08-30T08:09:57;37.40;;;25.83;;
34489;SDS011;20730;49.372;7.324;2023-08-30T08:12:25;34.92;;;25.77;;
34489;SDS011;20730;49.372;7.324;2023-08-30T08:14:52;34.75;;;24.63;;
34489;SDS011;20730;49.372;7.324;2023-08-30T08:17:19;26.83;;;20.85;;
34489;SDS011;20730;49.372;7.324;2023-08-30T08:19:46;25.10;;;19.60;;
34489;SDS011;20730;49.372;7.324;2023-08-30T08:22:13;23.77;;;18.90;;
34489;SDS011;20730;49.372;7.324;2023-08-30T08:24:39;23.30;;;18.95;;
34489;SDS011;20730;49.372;7.324;2023-08-30T08:27:06;22.67;;;18.95;;
34489;SDS011;20730;49.372;7.324;2023-08-30T08:29:33;23.60;;;18.13;;
34489;SDS011;20730;49.372;7.324;2023-08-30T08:32:00;22.13;;;18.25;;
34489;SDS011;20730;49.372;7.324;2023-08-30T08:34:27;22.02;;;17.77;;
34489;SDS011;20730;49.372;7.324;2023-08-30T08:36:54;20.17;;;16.92;;
34489;SDS011;20730;49.372;7.324;2023-08-30T08:39:20;21.95;;;18.60;;
34489;SDS011;20730;49.372;7.324;2023-08-30T08:41:48;19.20;;;16.48;;
34489;SDS011;20730;49.372;7.324;2023-08-30T08:44:19;19.48;;;17.13;;
34489;SDS011;20730;49.372;7.324;2023-08-30T08:46:48;20.42;;;17.10;;
34489;SDS011;20730;49.372;7.324;2023-08-30T08:49:15;22.58;;;17.42;;
34489;SDS011;20730;49.372;7.324;2023-08-30T08:51:43;19.40;;;16.85;;
34489;SDS011;20730;49.372;7.324;2023-08-30T08:54:11;19.40;;;17.08;;
34489;SDS011;20730;49.372;7.324;2023-08-30T08:56:38;19.45;;;17.40;;
34489;SDS011;20730;49.372;7.324;2023-08-30T08:59:06;18.83;;;16.58;;
34489;SDS011;20730;49.372;7.324;2023-08-30T09:01:34;19.50;;;16.58;;
34489;SDS011;20730;49.372;7.324;2023-08-30T09:04:09;17.50;;;15.02;;
34489;SDS011;20730;49.372;7.324;2023-08-30T09:06:36;18.52;;;16.13;;
34489;SDS011;20730;49.372;7.324;2023-08-30T09:09:04;18.25;;;16.17;;
34489;SDS011;20730;49.372;7.324;2023-08-30T09:11:31;18.20;;;14.20;;
34489;SDS011;20730;49.372;7.324;2023-08-30T09:14:16;18.25;;;14.52;;
34489;SDS011;20730;49.372;7.324;2023-08-30T09:16:53;16.52;;;14.77;;
34489;SDS011;20730;49.372;7.324;2023-08-30T09:19:24;16.98;;;15.18;;
34489;SDS011;20730;49.372;7.324;2023-08-30T09:21:54;17.73;;;15.93;;
34489;SDS011;20730;49.372;7.324;2023-08-30T09:24:22;16.63;;;14.93;;
34489;SDS011;20730;49.372;7.324;2023-08-30T09:26:49;17.10;;;15.32;;
34489;SDS011;20730;49.372;7.324;2023-08-30T09:29:18;17.45;;;15.63;;
34489;SDS011;20730;49.372;7.324;2023-08-30T09:31:45;16.52;;;14.93;;
34489;SDS011;20730;49.372;7.324;2023-08-30T09:34:12;18.35;;;15.10;;
34489;SDS011;20730;49.372;7.324;2023-08-30T09:36:40;17.23;;;15.48;;
34489;SDS011;20730;49.372;7.324;2023-08-30T09:39:08;18.80;;;14.57;;
34489;SDS011;20730;49.372;7.324;2023-08-30T09:41:36;16.10;;;14.48;;
34489;SDS011;20730;49.372;7.324;2023-08-30T09:44:10;15.35;;;13.77;;
34489;SDS011;20730;49.372;7.324;2023-08-30T09:46:50;16.40;;;14.68;;
34489;SDS011;20730;49.372;7.324;2023-08-30T09:49:20;15.57;;;13.98;;
34489;SDS011;20730;49.372;7.324;2023-08-30T09:51:48;14.50;;;13.00;;
34489;SDS011;20730;49.372;7.324;2023-08-30T09:54:17;17.90;;;13.48;;
34489;SDS011;20730;49.372;7.324;2023-08-30T09:57:04;15.23;;;13.45;;
34489;SDS011;20730;49.372;7.324;2023-08-30T09:59:32;14.77;;;13.23;;
34489;SDS011;20730;49.372;7.324;2023-08-30T10:01:59;12.57;;;11.38;;
34489;SDS011;20730;49.372;7.324;2023-08-30T10:04:29;14.57;;;12.98;;
34489;SDS011;20730;49.372;7.324;2023-08-30T10:06:56;13.43;;;11.77;;
34489;SDS011;20730;49.372;7.324;2023-08-30T10:09:24;15.52;;;11.85;;
34489;SDS011;20730;49.372;7.324;2023-08-30T10:11:51;13.93;;;12.48;;
34489;SDS011;20730;49.372;7.324;2023-08-30T10:14:17;14.00;;;12.13;;
34489;SDS011;20730;49.372;7.324;2023-08-30T10:16:45;13.57;;;12.25;;
34489;SDS011;20730;49.372;7.324;2023-08-30T10:19:21;12.60;;;11.40;;
34489;SDS011;20730;49.372;7.324;2023-08-30T10:21:53;11.65;;;10.40;;
34489;SDS011;20730;49.372;7.324;2023-08-30T10:24:24;11.10;;;10.00;;
34489;SDS011;20730;49.372;7.324;2023-08-30T10:27:01;12.32;;;10.18;;
34489;SDS011;20730;49.372;7.324;2023-08-30T10:29:30;14.13;;;9.10;;
34489;SDS011;20730;49.372;7.324;2023-08-30T10:32:02;10.05;;;9.05;;
34489;SDS011;20730;49.372;7.324;2023-08-30T10:34:33;11.30;;;9.80;;
34489;SDS011;20730;49.372;7.324;2023-08-30T10:37:01;10.57;;;9.25;;
34489;SDS011;20730;49.372;7.324;2023-08-30T10:39:38;9.07;;;8.23;;
34489;SDS011;20730;49.372;7.324;2023-08-30T10:42:07;9.38;;;8.48;;
34489;SDS011;20730;49.372;7.324;2023-08-30T10:44:34;8.98;;;8.02;;
34489;SDS011;20730;49.372;7.324;2023-08-30T10:47:10;10.23;;;7.50;;
34489;SDS011;20730;49.372;7.324;2023-08-30T10:49:50;8.18;;;7.43;;
34489;SDS011;20730;49.372;7.324;2023-08-30T10:52:16;7.68;;;6.88;;
34489;SDS011;20730;49.372;7.324;2023-08-30T10:54:43;7.10;;;6.40;;
34489;SDS011;20730;49.372;7.324;2023-08-30T10:57:14;9.00;;;7.38;;
34489;SDS011;20730;49.372;7.324;2023-08-30T11:02:46;6.13;;;4.85;;
34489;SDS011;20730;49.372;7.324;2023-08-30T11:05:15;6.45;;;4.75;;
34489;SDS011;20730;49.372;7.324;2023-08-30T11:07:43;7.55;;;5.03;;
34489;SDS011;20730;49.372;7.324;2023-08-30T11:10:12;7.68;;;4.53;;
34489;SDS011;20730;49.372;7.324;2023-08-30T11:12:42;6.68;;;4.60;;
34489;SDS011;20730;49.372;7.324;2023-08-30T11:15:10;5.97;;;4.93;;
34489;SDS011;20730;49.372;7.324;2023-08-30T11:17:37;7.20;;;4.63;;
34489;SDS011;20730;49.372;7.324;2023-08-30T11:20:08;6.30;;;4.93;;
34489;SDS011;20730;49.372;7.324;2023-08-30T11:22:40;5.10;;;4.40;;
34489;SDS011;20730;49.372;7.324;2023-08-30T11:25:09;7.30;;;4.15;;
34489;SDS011;20730;49.372;7.324;2023-08-30T11:27:37;6.22;;;4.30;;
34489;SDS011;20730;49.372;7.324;2023-08-30T11:30:08;6.32;;;4.18;;
34489;SDS011;20730;49.372;7.324;2023-08-30T11:32:36;5.50;;;3.88;;
34489;SDS011;20730;49.372;7.324;2023-08-30T11:35:07;7.93;;;4.25;;
34489;SDS011;20730;49.372;7.324;2023-08-30T11:37:33;5.10;;;3.90;;
34489;SDS011;20730;49.372;7.324;2023-08-30T11:40:01;4.35;;;3.85;;
34489;SDS011;20730;49.372;7.324;2023-08-30T11:42:30;8.90;;;4.10;;
34489;SDS011;20730;49.372;7.324;2023-08-30T11:44:58;4.43;;;3.83;;
34489;SDS011;20730;49.372;7.324;2023-08-30T11:47:26;6.07;;;3.88;;
34489;SDS011;20730;49.372;7.324;2023-08-30T11:49:54;4.47;;;3.45;;
34489;SDS011;20730;49.372;7.324;2023-08-30T11:52:25;4.73;;;3.60;;
34489;SDS011;20730;49.372;7.324;2023-08-30T11:54:53;7.72;;;3.25;;
34489;SDS011;20730;49.372;7.324;2023-08-30T11:57:20;5.32;;;3.38;;
34489;SDS011;20730;49.372;7.324;2023-08-30T11:59:47;4.55;;;3.30;;
34489;SDS011;20730;49.372;7.324;2023-08-30T12:02:15;4.65;;;3.10;;
34489;SDS011;20730;49.372;7.324;2023-08-30T12:04:43;5.10;;;3.15;;
34489;SDS011;20730;49.372;7.324;2023-08-30T12:07:24;9.55;;;3.08;;
34489;SDS011;20730;49.372;7.324;2023-08-30T12:09:52;6.53;;;3.40;;
34489;SDS011;20730;49.372;7.324;2023-08-30T12:12:30;5.80;;;3.33;;
34489;SDS011;20730;49.372;7.324;2023-08-30T12:14:57;5.20;;;3.15;;
34489;SDS011;20730;49.372;7.324;2023-08-30T12:17:24;4.80;;;2.80;;
34489;SDS011;20730;49.372;7.324;2023-08-30T12:19:55;5.47;;;2.97;;
34489;SDS011;20730;49.372;7.324;2023-08-30T12:22:22;4.45;;;2.63;;
34489;SDS011;20730;49.372;7.324;2023-08-30T12:24:49;6.25;;;2.95;;
34489;SDS011;20730;49.372;7.324;2023-08-30T12:27:16;6.68;;;3.50;;
34489;SDS011;20730;49.372;7.324;2023-08-30T12:29:43;3.05;;;2.50;;
34489;SDS011;20730;49.372;7.324;2023-08-30T12:32:09;4.20;;;2.90;;
34489;SDS011;20730;49.372;7.324;2023-08-30T12:34:36;4.57;;;2.80;;
34489;SDS011;20730;49.372;7.324;2023-08-30T12:37:05;3.83;;;2.65;;
34489;SDS011;20730;49.372;7.324;2023-08-30T12:39:32;3.85;;;2.20;;
34489;SDS011;20730;49.372;7.324;2023-08-30T12:41:59;3.80;;;2.58;;
34489;SDS011;20730;49.372;7.324;2023-08-30T12:44:26;5.95;;;2.42;;
34489;SDS011;20730;49.372;7.324;2023-08-30T12:46:52;5.30;;;3.03;;
34489;SDS011;20730;49.372;7.324;2023-08-30T12:49:19;3.60;;;2.70;;
34489;SDS011;20730;49.372;7.324;2023-08-30T12:51:46;4.43;;;2.80;;
34489;SDS011;20730;49.372;7.324;2023-08-30T12:54:12;5.32;;;2.90;;
34489;SDS011;20730;49.372;7.324;2023-08-30T12:56:39;6.00;;;2.55;;
34489;SDS011;20730;49.372;7.324;2023-08-30T12:59:06;4.35;;;3.22;;
34489;SDS011;20730;49.372;7.324;2023-08-30T13:01:33;3.92;;;2.83;;
34489;SDS011;20730;49.372;7.324;2023-08-30T13:03:59;5.03;;;2.97;;
34489;SDS011;20730;49.372;7.324;2023-08-30T13:06:26;6.05;;;2.80;;
34489;SDS011;20730;49.372;7.324;2023-08-30T13:08:53;4.80;;;3.10;;
34489;SDS011;20730;49.372;7.324;2023-08-30T13:11:20;4.88;;;3.00;;
34489;SDS011;20730;49.372;7.324;2023-08-30T13:13:47;5.97;;;2.70;;
34489;SDS011;20730;49.372;7.324;2023-08-30T13:16:13;6.20;;;3.08;;
34489;SDS011;20730;49.372;7.324;2023-08-30T13:18:40;5.20;;;2.78;;
34489;SDS011;20730;49.372;7.324;2023-08-30T13:21:07;4.47;;;2.60;;
34489;SDS011;20730;49.372;7.324;2023-08-30T13:23:34;4.68;;;2.63;;
34489;SDS011;20730;49.372;7.324;2023-08-30T13:26:00;4.40;;;3.05;;
34489;SDS011;20730;49.372;7.324;2023-08-30T13:28:27;4.75;;;2.58;;
34489;SDS011;20730;49.372;7.324;2023-08-30T13:30:54;6.68;;;3.00;;
34489;SDS011;20730;49.372;7.324;2023-08-30T13:33:21;4.60;;;2.83;;
34489;SDS011;20730;49.372;7.324;2023-08-30T13:35:51;4.70;;;2.78;;
34489;SDS011;20730;49.372;7.324;2023-08-30T13:38:18;5.18;;;3.08;;
34489;SDS011;20730;49.372;7.324;2023-08-30T13:40:45;5.72;;;2.72;;
34489;SDS011;20730;49.372;7.324;2023-08-30T13:43:12;3.10;;;2.78;;
34489;SDS011;20730;49.372;7.324;2023-08-30T13:45:39;4.35;;;2.67;;
34489;SDS011;20730;49.372;7.324;2023-08-30T13:48:06;3.67;;;2.80;;
34489;SDS011;20730;49.372;7.324;2023-08-30T13:50:33;5.32;;;2.70;;
34489;SDS011;20730;49.372;7.324;2023-08-30T13:53:00;4.00;;;2.60;;
34489;SDS011;20730;49.372;7.324;2023-08-30T13:55:27;5.28;;;2.88;;
34489;SDS011;20730;49.372;7.324;2023-08-30T13:57:54;5.78;;;2.60;;
34489;SDS011;20730;49.372;7.324;2023-08-30T14:00:21;5.80;;;2.72;;
34489;SDS011;20730;49.372;7.324;2023-08-30T14:02:48;5.60;;;2.90;;
34489;SDS011;20730;49.372;7.324;2023-08-30T14:05:15;5.72;;;2.67;;
34489;SDS011;20730;49.372;7.324;2023-08-30T14:07:42;5.13;;;2.97;;
34489;SDS011;20730;49.372;7.324;2023-08-30T14:10:11;4.50;;;2.70;;
34489;SDS011;20730;49.372;7.324;2023-08-30T14:12:46;6.97;;;3.00;;
34489;SDS011;20730;49.372;7.324;2023-08-30T14:15:13;4.72;;;2.70;;
34489;SDS011;20730;49.372;7.324;2023-08-30T14:17:41;3.63;;;2.70;;
34489;SDS011;20730;49.372;7.324;2023-08-30T14:20:08;6.53;;;2.90;;
34489;SDS011;20730;49.372;7.324;2023-08-30T14:22:36;4.25;;;2.60;;
34489;SDS011;20730;49.372;7.324;2023-08-30T14:25:03;5.50;;;3.00;;
34489;SDS011;20730;49.372;7.324;2023-08-30T14:27:34;3.97;;;2.42;;
34489;SDS011;20730;49.372;7.324;2023-08-30T14:30:01;4.43;;;2.38;;
34489;SDS011;20730;49.372;7.324;2023-08-30T14:32:28;5.63;;;2.70;;
34489;SDS011;20730;49.372;7.324;2023-08-30T14:34:54;5.07;;;2.45;;
34489;SDS011;20730;49.372;7.324;2023-08-30T14:37:21;4.82;;;2.70;;
34489;SDS011;20730;49.372;7.324;2023-08-30T14:39:48;5.10;;;2.50;;